sensor_id;sensor_type;location;lat;lon;timestamp;P1;durP1;ratioP1;P2;durP2;ratioP2
55409;SDS011;41279;43.546;16.426;2023-04-03T00:00:29;3.70;;;2.90;;
55409;SDS011;41279;43.546;16.426;2023-04-03T00:02:55;3.35;;;3.05;;
55409;SDS011;41279;43.546;16.426;2023-04-03T00:05:21;3.30;;;3.00;;
55409;SDS011;41279;43.546;16.426;2023-04-03T00:07:46;3.30;;;3.00;;
55409;SDS011;41279;43.546;16.426;2023-04-03T00:10:12;3.53;;;3.00;;
55409;SDS011;41279;43.546;16.426;2023-04-03T00:12:38;3.30;;;2.90;;
55409;SDS011;41279;43.546;16.426;2023-04-03T00:15:04;3.30;;;3.00;;
55409;SDS011;41279;43.546;16.426;2023-04-03T00:17:30;3.25;;;2.90;;
55409;SDS011;41279;43.546;16.426;2023-04-03T00:19:55;3.22;;;2.92;;
55409;SDS011;41279;43.546;16.426;2023-04-03T00:22:28;3.10;;;2.80;;
55409;SDS011;41279;43.546;16.426;2023-04-03T00:24:54;3.50;;;3.20;;
55409;SDS011;41279;43.546;16.426;2023-04-03T00:27:19;3.30;;;3.00;;
55409;SDS011;41279;43.546;16.426;2023-04-03T00:29:45;3.40;;;3.10;;
55409;SDS011;41279;43.546;16.426;2023-04-03T00:32:17;3.30;;;3.00;;
55409;SDS011;41279;43.546;16.426;2023-04-03T00:34:49;3.42;;;3.10;;
55409;SDS011;41279;43.546;16.426;2023-04-03T00:37:15;3.45;;;3.15;;
55409;SDS011;41279;43.546;16.426;2023-04-03T00:39:40;3.20;;;2.90;;
55409;SDS011;41279;43.546;16.426;2023-04-03T00:42:06;3.20;;;2.90;;
55409;SDS011;41279;43.546;16.426;2023-04-03T00:47:00;3.30;;;2.92;;
55409;SDS011;41279;43.546;16.426;2023-04-03T00:49:28;3.45;;;3.15;;
55409;SDS011;41279;43.546;16.426;2023-04-03T00:51:54;3.30;;;3.00;;
55409;SDS011;41279;43.546;16.426;2023-04-03T00:54:21;3.30;;;3.00;;
55409;SDS011;41279;43.546;16.426;2023-04-03T00:56:46;3.30;;;3.00;;
55409;SDS011;41279;43.546;16.426;2023-04-03T00:59:14;3.30;;;3.00;;
55409;SDS011;41279;43.546;16.426;2023-04-03T01:01:47;3.45;;;3.15;;
55409;SDS011;41279;43.546;16.426;2023-04-03T01:06:56;3.40;;;3.10;;
55409;SDS011;41279;43.546;16.426;2023-04-03T01:09:26;3.40;;;3.10;;
55409;SDS011;41279;43.546;16.426;2023-04-03T01:11:52;3.78;;;3.28;;
55409;SDS011;41279;43.546;16.426;2023-04-03T01:14:18;3.25;;;2.95;;
55409;SDS011;41279;43.546;16.426;2023-04-03T01:16:51;3.10;;;2.75;;
55409;SDS011;41279;43.546;16.426;2023-04-03T01:19:18;3.20;;;2.83;;
55409;SDS011;41279;43.546;16.426;2023-04-03T01:21:51;4.47;;;2.85;;
55409;SDS011;41279;43.546;16.426;2023-04-03T01:24:37;2.90;;;2.53;;
55409;SDS011;41279;43.546;16.426;2023-04-03T01:27:06;3.10;;;2.80;;
55409;SDS011;41279;43.546;16.426;2023-04-03T01:29:34;3.38;;;3.08;;
55409;SDS011;41279;43.546;16.426;2023-04-03T01:32:06;4.38;;;3.05;;
55409;SDS011;41279;43.546;16.426;2023-04-03T01:34:31;2.90;;;2.60;;
55409;SDS011;41279;43.546;16.426;2023-04-03T01:36:57;2.90;;;2.60;;
55409;SDS011;41279;43.546;16.426;2023-04-03T01:39:22;3.33;;;2.90;;
55409;SDS011;41279;43.546;16.426;2023-04-03T01:41:48;3.10;;;2.80;;
55409;SDS011;41279;43.546;16.426;2023-04-03T01:44:14;2.90;;;2.55;;
55409;SDS011;41279;43.546;16.426;2023-04-03T01:46:40;3.22;;;2.70;;
55409;SDS011;41279;43.546;16.426;2023-04-03T01:49:07;3.30;;;2.90;;
55409;SDS011;41279;43.546;16.426;2023-04-03T01:51:32;3.10;;;2.70;;
55409;SDS011;41279;43.546;16.426;2023-04-03T01:53:58;3.33;;;2.78;;
55409;SDS011;41279;43.546;16.426;2023-04-03T01:56:24;2.90;;;2.60;;
55409;SDS011;41279;43.546;16.426;2023-04-03T01:58:50;3.05;;;2.50;;
55409;SDS011;41279;43.546;16.426;2023-04-03T02:01:15;2.90;;;2.50;;
55409;SDS011;41279;43.546;16.426;2023-04-03T02:03:41;3.03;;;2.50;;
55409;SDS011;41279;43.546;16.426;2023-04-03T02:06:06;3.00;;;2.70;;
55409;SDS011;41279;43.546;16.426;2023-04-03T02:08:31;2.90;;;2.60;;
55409;SDS011;41279;43.546;16.426;2023-04-03T02:10:57;2.80;;;2.30;;
55409;SDS011;41279;43.546;16.426;2023-04-03T02:13:23;2.90;;;2.45;;
55409;SDS011;41279;43.546;16.426;2023-04-03T02:15:48;2.70;;;2.40;;
55409;SDS011;41279;43.546;16.426;2023-04-03T02:18:13;2.90;;;2.50;;
55409;SDS011;41279;43.546;16.426;2023-04-03T02:20:39;3.22;;;2.60;;
55409;SDS011;41279;43.546;16.426;2023-04-03T02:23:05;3.22;;;2.63;;
55409;SDS011;41279;43.546;16.426;2023-04-03T02:25:31;3.83;;;2.60;;
55409;SDS011;41279;43.546;16.426;2023-04-03T02:27:57;2.83;;;2.40;;
55409;SDS011;41279;43.546;16.426;2023-04-03T02:30:22;3.00;;;2.70;;
55409;SDS011;41279;43.546;16.426;2023-04-03T02:32:48;2.83;;;2.50;;
55409;SDS011;41279;43.546;16.426;2023-04-03T02:35:13;2.95;;;2.65;;
55409;SDS011;41279;43.546;16.426;2023-04-03T02:37:39;3.70;;;2.30;;
55409;SDS011;41279;43.546;16.426;2023-04-03T02:40:04;3.13;;;2.60;;
55409;SDS011;41279;43.546;16.426;2023-04-03T02:42:31;2.80;;;2.50;;
55409;SDS011;41279;43.546;16.426;2023-04-03T02:44:57;2.80;;;2.30;;
55409;SDS011;41279;43.546;16.426;2023-04-03T02:47:22;2.75;;;2.45;;
55409;SDS011;41279;43.546;16.426;2023-04-03T02:49:48;2.80;;;2.47;;
55409;SDS011;41279;43.546;16.426;2023-04-03T02:52:13;2.72;;;2.40;;
55409;SDS011;41279;43.546;16.426;2023-04-03T02:54:39;3.00;;;2.60;;
55409;SDS011;41279;43.546;16.426;2023-04-03T02:57:05;3.10;;;2.75;;
55409;SDS011;41279;43.546;16.426;2023-04-03T02:59:34;2.80;;;2.50;;
55409;SDS011;41279;43.546;16.426;2023-04-03T03:02:00;2.90;;;2.60;;
55409;SDS011;41279;43.546;16.426;2023-04-03T03:04:25;2.80;;;2.50;;
55409;SDS011;41279;43.546;16.426;2023-04-03T03:06:51;3.63;;;2.60;;
55409;SDS011;41279;43.546;16.426;2023-04-03T03:09:17;2.90;;;2.60;;
55409;SDS011;41279;43.546;16.426;2023-04-03T03:11:43;2.88;;;2.58;;
55409;SDS011;41279;43.546;16.426;2023-04-03T03:14:08;3.05;;;2.75;;
55409;SDS011;41279;43.546;16.426;2023-04-03T03:16:34;3.10;;;2.80;;
55409;SDS011;41279;43.546;16.426;2023-04-03T03:18:59;3.00;;;2.70;;
55409;SDS011;41279;43.546;16.426;2023-04-03T03:21:25;2.72;;;2.42;;
55409;SDS011;41279;43.546;16.426;2023-04-03T03:23:51;2.90;;;2.60;;
55409;SDS011;41279;43.546;16.426;2023-04-03T03:26:16;2.90;;;2.60;;
55409;SDS011;41279;43.546;16.426;2023-04-03T03:28:42;3.83;;;2.95;;
55409;SDS011;41279;43.546;16.426;2023-04-03T03:31:08;2.80;;;2.50;;
55409;SDS011;41279;43.546;16.426;2023-04-03T03:33:35;2.80;;;2.50;;
55409;SDS011;41279;43.546;16.426;2023-04-03T03:36:00;3.00;;;2.60;;
55409;SDS011;41279;43.546;16.426;2023-04-03T03:38:26;2.88;;;2.58;;
55409;SDS011;41279;43.546;16.426;2023-04-03T03:40:52;2.90;;;2.60;;
55409;SDS011;41279;43.546;16.426;2023-04-03T03:43:17;2.90;;;2.60;;
55409;SDS011;41279;43.546;16.426;2023-04-03T03:45:43;3.00;;;2.70;;
55409;SDS011;41279;43.546;16.426;2023-04-03T03:48:10;3.00;;;2.70;;
55409;SDS011;41279;43.546;16.426;2023-04-03T03:50:36;3.25;;;2.58;;
55409;SDS011;41279;43.546;16.426;2023-04-03T03:53:01;2.90;;;2.60;;
55409;SDS011;41279;43.546;16.426;2023-04-03T03:55:27;2.60;;;2.40;;
55409;SDS011;41279;43.546;16.426;2023-04-03T03:57:52;2.80;;;2.50;;
55409;SDS011;41279;43.546;16.426;2023-04-03T04:00:18;2.70;;;2.40;;
55409;SDS011;41279;43.546;16.426;2023-04-03T04:02:43;3.00;;;2.70;;
55409;SDS011;41279;43.546;16.426;2023-04-03T04:05:09;3.00;;;2.70;;
55409;SDS011;41279;43.546;16.426;2023-04-03T04:07:35;3.00;;;2.60;;
55409;SDS011;41279;43.546;16.426;2023-04-03T04:10:00;3.40;;;2.60;;
55409;SDS011;41279;43.546;16.426;2023-04-03T04:12:26;2.97;;;2.60;;
55409;SDS011;41279;43.546;16.426;2023-04-03T04:14:52;3.00;;;2.50;;
55409;SDS011;41279;43.546;16.426;2023-04-03T04:17:17;2.90;;;2.60;;
55409;SDS011;41279;43.546;16.426;2023-04-03T04:19:43;3.00;;;2.60;;
55409;SDS011;41279;43.546;16.426;2023-04-03T04:22:08;3.40;;;2.90;;
55409;SDS011;41279;43.546;16.426;2023-04-03T04:24:33;2.90;;;2.50;;
55409;SDS011;41279;43.546;16.426;2023-04-03T04:26:59;3.10;;;2.78;;
55409;SDS011;41279;43.546;16.426;2023-04-03T04:29:24;2.90;;;2.60;;
55409;SDS011;41279;43.546;16.426;2023-04-03T04:31:50;3.00;;;2.70;;
55409;SDS011;41279;43.546;16.426;2023-04-03T04:34:15;2.90;;;2.60;;
55409;SDS011;41279;43.546;16.426;2023-04-03T04:36:41;2.95;;;2.60;;
55409;SDS011;41279;43.546;16.426;2023-04-03T04:39:06;3.03;;;2.72;;
55409;SDS011;41279;43.546;16.426;2023-04-03T04:41:32;3.17;;;2.80;;
55409;SDS011;41279;43.546;16.426;2023-04-03T04:43:59;3.38;;;2.60;;
55409;SDS011;41279;43.546;16.426;2023-04-03T04:46:25;3.10;;;2.70;;
55409;SDS011;41279;43.546;16.426;2023-04-03T04:48:51;3.25;;;2.95;;
55409;SDS011;41279;43.546;16.426;2023-04-03T04:51:17;3.70;;;2.70;;
55409;SDS011;41279;43.546;16.426;2023-04-03T04:53:42;3.72;;;2.80;;
55409;SDS011;41279;43.546;16.426;2023-04-03T04:56:08;3.22;;;2.92;;
55409;SDS011;41279;43.546;16.426;2023-04-03T04:58:34;4.20;;;3.03;;
55409;SDS011;41279;43.546;16.426;2023-04-03T05:01:06;3.10;;;2.80;;
55409;SDS011;41279;43.546;16.426;2023-04-03T05:03:34;3.20;;;2.90;;
55409;SDS011;41279;43.546;16.426;2023-04-03T05:06:01;3.40;;;3.10;;
55409;SDS011;41279;43.546;16.426;2023-04-03T05:08:27;3.45;;;3.10;;
55409;SDS011;41279;43.546;16.426;2023-04-03T05:10:52;3.28;;;2.97;;
55409;SDS011;41279;43.546;16.426;2023-04-03T05:13:18;3.42;;;3.13;;
55409;SDS011;41279;43.546;16.426;2023-04-03T05:15:44;3.22;;;2.92;;
55409;SDS011;41279;43.546;16.426;2023-04-03T05:18:10;3.00;;;2.70;;
55409;SDS011;41279;43.546;16.426;2023-04-03T05:20:35;3.40;;;3.10;;
55409;SDS011;41279;43.546;16.426;2023-04-03T05:23:02;3.42;;;3.13;;
55409;SDS011;41279;43.546;16.426;2023-04-03T05:25:28;3.30;;;3.00;;
55409;SDS011;41279;43.546;16.426;2023-04-03T05:27:53;3.95;;;3.42;;
55409;SDS011;41279;43.546;16.426;2023-04-03T05:30:19;3.88;;;3.50;;
55409;SDS011;41279;43.546;16.426;2023-04-03T05:32:44;3.10;;;2.80;;
55409;SDS011;41279;43.546;16.426;2023-04-03T05:35:10;3.25;;;2.95;;
55409;SDS011;41279;43.546;16.426;2023-04-03T05:37:36;3.50;;;3.20;;
55409;SDS011;41279;43.546;16.426;2023-04-03T05:40:02;3.60;;;3.13;;
55409;SDS011;41279;43.546;16.426;2023-04-03T05:42:29;4.55;;;2.80;;
55409;SDS011;41279;43.546;16.426;2023-04-03T05:44:55;3.20;;;2.90;;
55409;SDS011;41279;43.546;16.426;2023-04-03T05:47:20;3.67;;;3.00;;
55409;SDS011;41279;43.546;16.426;2023-04-03T05:49:45;3.20;;;2.90;;
55409;SDS011;41279;43.546;16.426;2023-04-03T05:52:17;3.30;;;3.00;;
55409;SDS011;41279;43.546;16.426;2023-04-03T05:54:48;3.20;;;2.90;;
55409;SDS011;41279;43.546;16.426;2023-04-03T05:57:14;3.20;;;2.80;;
55409;SDS011;41279;43.546;16.426;2023-04-03T05:59:41;5.15;;;3.13;;
55409;SDS011;41279;43.546;16.426;2023-04-03T06:02:09;3.58;;;3.00;;
55409;SDS011;41279;43.546;16.426;2023-04-03T06:04:37;4.00;;;2.95;;
55409;SDS011;41279;43.546;16.426;2023-04-03T06:07:03;3.80;;;3.10;;
55409;SDS011;41279;43.546;16.426;2023-04-03T06:09:29;3.42;;;2.90;;
55409;SDS011;41279;43.546;16.426;2023-04-03T06:11:54;3.83;;;2.97;;
55409;SDS011;41279;43.546;16.426;2023-04-03T06:14:21;3.20;;;2.90;;
55409;SDS011;41279;43.546;16.426;2023-04-03T06:16:46;3.30;;;3.00;;
55409;SDS011;41279;43.546;16.426;2023-04-03T06:19:12;3.30;;;2.88;;
55409;SDS011;41279;43.546;16.426;2023-04-03T06:21:37;3.35;;;2.90;;
55409;SDS011;41279;43.546;16.426;2023-04-03T06:24:03;3.92;;;2.92;;
55409;SDS011;41279;43.546;16.426;2023-04-03T06:26:29;4.38;;;3.15;;
55409;SDS011;41279;43.546;16.426;2023-04-03T06:29:02;3.15;;;2.85;;
55409;SDS011;41279;43.546;16.426;2023-04-03T06:31:34;3.20;;;2.88;;
55409;SDS011;41279;43.546;16.426;2023-04-03T06:34:01;3.13;;;2.80;;
55409;SDS011;41279;43.546;16.426;2023-04-03T06:36:27;5.75;;;3.08;;
55409;SDS011;41279;43.546;16.426;2023-04-03T06:38:54;3.63;;;3.15;;
55409;SDS011;41279;43.546;16.426;2023-04-03T06:41:19;3.50;;;3.20;;
55409;SDS011;41279;43.546;16.426;2023-04-03T06:43:46;3.58;;;2.90;;
55409;SDS011;41279;43.546;16.426;2023-04-03T06:46:21;3.30;;;3.00;;
55409;SDS011;41279;43.546;16.426;2023-04-03T06:48:47;3.53;;;3.20;;
55409;SDS011;41279;43.546;16.426;2023-04-03T06:53:50;3.40;;;3.10;;
55409;SDS011;41279;43.546;16.426;2023-04-03T06:56:17;3.20;;;2.90;;
55409;SDS011;41279;43.546;16.426;2023-04-03T06:58:43;4.93;;;2.92;;
55409;SDS011;41279;43.546;16.426;2023-04-03T07:01:10;3.55;;;2.90;;
55409;SDS011;41279;43.546;16.426;2023-04-03T07:03:37;3.20;;;2.88;;
55409;SDS011;41279;43.546;16.426;2023-04-03T07:06:03;3.33;;;3.03;;
55409;SDS011;41279;43.546;16.426;2023-04-03T07:08:30;3.50;;;3.20;;
55409;SDS011;41279;43.546;16.426;2023-04-03T07:10:56;4.40;;;3.25;;
55409;SDS011;41279;43.546;16.426;2023-04-03T07:13:22;3.20;;;2.90;;
55409;SDS011;41279;43.546;16.426;2023-04-03T07:15:47;4.30;;;2.90;;
55409;SDS011;41279;43.546;16.426;2023-04-03T07:18:13;3.42;;;3.00;;
55409;SDS011;41279;43.546;16.426;2023-04-03T07:20:38;4.43;;;2.90;;
55409;SDS011;41279;43.546;16.426;2023-04-03T07:23:05;4.40;;;2.90;;
55409;SDS011;41279;43.546;16.426;2023-04-03T07:25:30;3.53;;;3.22;;
55409;SDS011;41279;43.546;16.426;2023-04-03T07:27:56;3.20;;;2.90;;
55409;SDS011;41279;43.546;16.426;2023-04-03T07:30:22;3.28;;;2.88;;
55409;SDS011;41279;43.546;16.426;2023-04-03T07:32:48;3.85;;;3.13;;
55409;SDS011;41279;43.546;16.426;2023-04-03T07:35:13;3.50;;;3.10;;
55409;SDS011;41279;43.546;16.426;2023-04-03T07:37:39;3.50;;;3.20;;
55409;SDS011;41279;43.546;16.426;2023-04-03T07:40:05;4.03;;;3.40;;
55409;SDS011;41279;43.546;16.426;2023-04-03T07:42:31;3.78;;;3.03;;
55409;SDS011;41279;43.546;16.426;2023-04-03T07:44:57;3.40;;;3.03;;
55409;SDS011;41279;43.546;16.426;2023-04-03T07:47:22;3.53;;;3.00;;
55409;SDS011;41279;43.546;16.426;2023-04-03T07:49:48;3.53;;;3.22;;
55409;SDS011;41279;43.546;16.426;2023-04-03T07:52:13;3.42;;;2.90;;
55409;SDS011;41279;43.546;16.426;2023-04-03T07:54:42;3.28;;;2.97;;
55409;SDS011;41279;43.546;16.426;2023-04-03T07:57:07;3.35;;;3.03;;
55409;SDS011;41279;43.546;16.426;2023-04-03T07:59:33;4.10;;;3.10;;
55409;SDS011;41279;43.546;16.426;2023-04-03T08:01:59;4.85;;;3.10;;
55409;SDS011;41279;43.546;16.426;2023-04-03T08:04:24;4.28;;;3.00;;
55409;SDS011;41279;43.546;16.426;2023-04-03T08:06:51;3.50;;;3.00;;
55409;SDS011;41279;43.546;16.426;2023-04-03T08:09:17;3.50;;;3.00;;
55409;SDS011;41279;43.546;16.426;2023-04-03T08:11:43;4.30;;;3.35;;
55409;SDS011;41279;43.546;16.426;2023-04-03T08:14:09;3.85;;;3.45;;
55409;SDS011;41279;43.546;16.426;2023-04-03T08:16:40;4.65;;;3.20;;
55409;SDS011;41279;43.546;16.426;2023-04-03T08:19:06;3.88;;;3.10;;
55409;SDS011;41279;43.546;16.426;2023-04-03T08:21:32;3.97;;;3.58;;
55409;SDS011;41279;43.546;16.426;2023-04-03T08:23:58;3.97;;;3.30;;
55409;SDS011;41279;43.546;16.426;2023-04-03T08:26:23;3.80;;;3.15;;
55409;SDS011;41279;43.546;16.426;2023-04-03T08:28:49;3.40;;;3.10;;
55409;SDS011;41279;43.546;16.426;2023-04-03T08:31:15;5.28;;;3.15;;
55409;SDS011;41279;43.546;16.426;2023-04-03T08:33:44;3.50;;;3.20;;
55409;SDS011;41279;43.546;16.426;2023-04-03T08:36:23;3.40;;;3.00;;
55409;SDS011;41279;43.546;16.426;2023-04-03T08:38:52;6.80;;;3.30;;
55409;SDS011;41279;43.546;16.426;2023-04-03T08:49:33;4.22;;;3.25;;
55409;SDS011;41279;43.546;16.426;2023-04-03T08:52:12;3.78;;;3.10;;
55409;SDS011;41279;43.546;16.426;2023-04-03T08:54:51;4.60;;;3.20;;
55409;SDS011;41279;43.546;16.426;2023-04-03T09:00:00;3.70;;;3.10;;
55409;SDS011;41279;43.546;16.426;2023-04-03T09:02:43;3.45;;;3.08;;
55409;SDS011;41279;43.546;16.426;2023-04-03T09:05:18;7.10;;;3.78;;
55409;SDS011;41279;43.546;16.426;2023-04-03T09:07:53;3.90;;;3.50;;
55409;SDS011;41279;43.546;16.426;2023-04-03T09:10:27;4.05;;;3.50;;
55409;SDS011;41279;43.546;16.426;2023-04-03T09:13:18;3.60;;;3.30;;
55409;SDS011;41279;43.546;16.426;2023-04-03T09:15:46;4.03;;;3.47;;
55409;SDS011;41279;43.546;16.426;2023-04-03T09:18:22;3.55;;;3.20;;
55409;SDS011;41279;43.546;16.426;2023-04-03T09:20:57;3.90;;;3.42;;
55409;SDS011;41279;43.546;16.426;2023-04-03T09:23:46;5.28;;;3.60;;
55409;SDS011;41279;43.546;16.426;2023-04-03T09:26:24;3.42;;;3.10;;
55409;SDS011;41279;43.546;16.426;2023-04-03T09:28:54;4.53;;;3.40;;
55409;SDS011;41279;43.546;16.426;2023-04-03T09:31:24;4.38;;;3.22;;
55409;SDS011;41279;43.546;16.426;2023-04-03T09:33:53;3.67;;;3.30;;
55409;SDS011;41279;43.546;16.426;2023-04-03T09:36:37;3.67;;;3.25;;
55409;SDS011;41279;43.546;16.426;2023-04-03T09:39:10;3.92;;;3.20;;
55409;SDS011;41279;43.546;16.426;2023-04-03T09:41:41;3.72;;;3.40;;
55409;SDS011;41279;43.546;16.426;2023-04-03T09:44:27;5.68;;;3.67;;
55409;SDS011;41279;43.546;16.426;2023-04-03T09:46:57;3.40;;;3.10;;
55409;SDS011;41279;43.546;16.426;2023-04-03T09:49:23;3.95;;;3.38;;
55409;SDS011;41279;43.546;16.426;2023-04-03T09:51:49;5.43;;;3.55;;
55409;SDS011;41279;43.546;16.426;2023-04-03T09:54:32;3.80;;;3.40;;
55409;SDS011;41279;43.546;16.426;2023-04-03T09:57:12;3.58;;;3.28;;
55409;SDS011;41279;43.546;16.426;2023-04-03T09:59:44;3.80;;;3.10;;
55409;SDS011;41279;43.546;16.426;2023-04-03T10:08:11;4.38;;;3.00;;
55409;SDS011;41279;43.546;16.426;2023-04-03T10:10:40;3.92;;;3.05;;
55409;SDS011;41279;43.546;16.426;2023-04-03T10:15:45;3.83;;;3.10;;
55409;SDS011;41279;43.546;16.426;2023-04-03T10:18:26;4.45;;;3.15;;
55409;SDS011;41279;43.546;16.426;2023-04-03T10:20:59;3.40;;;3.00;;
55409;SDS011;41279;43.546;16.426;2023-04-03T10:24:07;3.50;;;3.15;;
55409;SDS011;41279;43.546;16.426;2023-04-03T10:29:48;5.38;;;3.40;;
55409;SDS011;41279;43.546;16.426;2023-04-03T10:32:49;4.32;;;3.13;;
55409;SDS011;41279;43.546;16.426;2023-04-03T10:35:33;3.53;;;2.90;;
55409;SDS011;41279;43.546;16.426;2023-04-03T10:41:02;4.05;;;3.53;;
55409;SDS011;41279;43.546;16.426;2023-04-03T10:51:24;3.83;;;3.42;;
55409;SDS011;41279;43.546;16.426;2023-04-03T10:54:31;4.63;;;3.30;;
55409;SDS011;41279;43.546;16.426;2023-04-03T10:57:01;3.70;;;3.30;;
55409;SDS011;41279;43.546;16.426;2023-04-03T10:59:35;3.55;;;3.25;;
55409;SDS011;41279;43.546;16.426;2023-04-03T11:07:43;5.13;;;3.72;;
55409;SDS011;41279;43.546;16.426;2023-04-03T11:10:21;3.70;;;3.40;;
55409;SDS011;41279;43.546;16.426;2023-04-03T11:13:02;3.80;;;3.50;;
55409;SDS011;41279;43.546;16.426;2023-04-03T11:15:38;3.67;;;3.38;;
55409;SDS011;41279;43.546;16.426;2023-04-03T11:18:11;3.33;;;3.03;;
55409;SDS011;41279;43.546;16.426;2023-04-03T11:20:41;3.60;;;3.00;;
55409;SDS011;41279;43.546;16.426;2023-04-03T11:25:54;4.78;;;3.10;;
55409;SDS011;41279;43.546;16.426;2023-04-03T11:28:29;4.68;;;2.90;;
55409;SDS011;41279;43.546;16.426;2023-04-03T11:31:00;4.90;;;3.10;;
55409;SDS011;41279;43.546;16.426;2023-04-03T11:36:22;3.20;;;2.90;;
55409;SDS011;41279;43.546;16.426;2023-04-03T11:38:55;3.30;;;3.00;;
55409;SDS011;41279;43.546;16.426;2023-04-03T11:41:30;5.40;;;3.40;;
55409;SDS011;41279;43.546;16.426;2023-04-03T12:05:48;3.63;;;3.28;;
55409;SDS011;41279;43.546;16.426;2023-04-03T12:13:35;3.20;;;2.90;;
55409;SDS011;41279;43.546;16.426;2023-04-03T12:16:02;3.30;;;2.90;;
55409;SDS011;41279;43.546;16.426;2023-04-03T12:21:13;3.25;;;2.92;;
55409;SDS011;41279;43.546;16.426;2023-04-03T12:29:50;3.80;;;3.28;;
55409;SDS011;41279;43.546;16.426;2023-04-03T12:34:49;3.83;;;3.42;;
55409;SDS011;41279;43.546;16.426;2023-04-03T12:54:00;4.75;;;3.20;;
55409;SDS011;41279;43.546;16.426;2023-04-03T12:56:29;3.83;;;3.10;;
55409;SDS011;41279;43.546;16.426;2023-04-03T12:59:18;3.63;;;3.30;;
55409;SDS011;41279;43.546;16.426;2023-04-03T13:01:58;3.88;;;3.33;;
55409;SDS011;41279;43.546;16.426;2023-04-03T13:04:29;3.65;;;3.20;;
55409;SDS011;41279;43.546;16.426;2023-04-03T13:06:56;3.92;;;3.10;;
55409;SDS011;41279;43.546;16.426;2023-04-03T13:09:24;3.80;;;3.10;;
55409;SDS011;41279;43.546;16.426;2023-04-03T13:11:58;4.10;;;3.20;;
55409;SDS011;41279;43.546;16.426;2023-04-03T13:14:34;3.50;;;3.20;;
55409;SDS011;41279;43.546;16.426;2023-04-03T13:19:39;3.85;;;2.97;;
55409;SDS011;41279;43.546;16.426;2023-04-03T13:25:05;3.40;;;3.00;;
55409;SDS011;41279;43.546;16.426;2023-04-03T13:27:32;3.88;;;3.22;;
55409;SDS011;41279;43.546;16.426;2023-04-03T13:29:59;3.28;;;2.97;;
55409;SDS011;41279;43.546;16.426;2023-04-03T13:32:27;4.63;;;3.72;;
55409;SDS011;41279;43.546;16.426;2023-04-03T13:34:54;3.40;;;3.05;;
55409;SDS011;41279;43.546;16.426;2023-04-03T13:37:23;3.10;;;2.80;;
55409;SDS011;41279;43.546;16.426;2023-04-03T13:40:03;3.95;;;2.90;;
55409;SDS011;41279;43.546;16.426;2023-04-03T13:42:30;3.58;;;3.13;;
55409;SDS011;41279;43.546;16.426;2023-04-03T13:47:39;3.35;;;3.03;;
55409;SDS011;41279;43.546;16.426;2023-04-03T13:50:24;4.65;;;2.90;;
55409;SDS011;41279;43.546;16.426;2023-04-03T13:55:23;3.35;;;3.05;;
55409;SDS011;41279;43.546;16.426;2023-04-03T13:58:00;3.92;;;2.90;;
55409;SDS011;41279;43.546;16.426;2023-04-03T14:02:56;3.33;;;3.03;;
55409;SDS011;41279;43.546;16.426;2023-04-03T14:05:23;5.60;;;3.10;;
55409;SDS011;41279;43.546;16.426;2023-04-03T14:07:50;3.28;;;2.97;;
55409;SDS011;41279;43.546;16.426;2023-04-03T14:10:16;3.17;;;2.88;;
55409;SDS011;41279;43.546;16.426;2023-04-03T14:12:42;3.30;;;3.00;;
55409;SDS011;41279;43.546;16.426;2023-04-03T14:15:15;3.55;;;2.90;;
55409;SDS011;41279;43.546;16.426;2023-04-03T14:17:41;3.75;;;2.92;;
55409;SDS011;41279;43.546;16.426;2023-04-03T14:20:10;3.97;;;3.20;;
55409;SDS011;41279;43.546;16.426;2023-04-03T14:22:40;5.28;;;2.90;;
55409;SDS011;41279;43.546;16.426;2023-04-03T14:25:05;3.50;;;2.90;;
55409;SDS011;41279;43.546;16.426;2023-04-03T14:27:38;3.28;;;2.97;;
55409;SDS011;41279;43.546;16.426;2023-04-03T14:30:08;4.18;;;3.50;;
55409;SDS011;41279;43.546;16.426;2023-04-03T14:32:38;4.75;;;3.05;;
55409;SDS011;41279;43.546;16.426;2023-04-03T14:35:04;3.40;;;3.10;;
55409;SDS011;41279;43.546;16.426;2023-04-03T14:37:30;3.30;;;3.00;;
55409;SDS011;41279;43.546;16.426;2023-04-03T14:39:57;4.75;;;3.20;;
55409;SDS011;41279;43.546;16.426;2023-04-03T14:42:28;3.30;;;3.00;;
55409;SDS011;41279;43.546;16.426;2023-04-03T14:44:56;3.70;;;3.00;;
55409;SDS011;41279;43.546;16.426;2023-04-03T14:47:26;3.60;;;3.30;;
55409;SDS011;41279;43.546;16.426;2023-04-03T14:49:53;3.50;;;3.20;;
55409;SDS011;41279;43.546;16.426;2023-04-03T14:54:48;3.40;;;3.00;;
55409;SDS011;41279;43.546;16.426;2023-04-03T14:57:15;3.45;;;3.15;;
55409;SDS011;41279;43.546;16.426;2023-04-03T14:59:41;3.10;;;2.80;;
55409;SDS011;41279;43.546;16.426;2023-04-03T15:02:27;5.28;;;3.35;;
55409;SDS011;41279;43.546;16.426;2023-04-03T15:04:58;3.83;;;3.20;;
55409;SDS011;41279;43.546;16.426;2023-04-03T15:07:25;3.30;;;2.90;;
55409;SDS011;41279;43.546;16.426;2023-04-03T15:09:53;3.30;;;3.00;;
55409;SDS011;41279;43.546;16.426;2023-04-03T15:12:21;3.15;;;2.80;;
55409;SDS011;41279;43.546;16.426;2023-04-03T15:14:47;3.25;;;2.78;;
55409;SDS011;41279;43.546;16.426;2023-04-03T15:17:20;3.65;;;2.83;;
55409;SDS011;41279;43.546;16.426;2023-04-03T15:22:13;3.10;;;2.80;;
55409;SDS011;41279;43.546;16.426;2023-04-03T15:24:40;3.22;;;2.80;;
55409;SDS011;41279;43.546;16.426;2023-04-03T15:27:05;6.93;;;3.10;;
55409;SDS011;41279;43.546;16.426;2023-04-03T15:29:31;3.33;;;2.97;;
55409;SDS011;41279;43.546;16.426;2023-04-03T15:31:56;4.07;;;2.90;;
55409;SDS011;41279;43.546;16.426;2023-04-03T15:34:22;4.18;;;2.83;;
55409;SDS011;41279;43.546;16.426;2023-04-03T15:36:47;3.30;;;3.00;;
55409;SDS011;41279;43.546;16.426;2023-04-03T15:39:13;3.85;;;3.22;;
55409;SDS011;41279;43.546;16.426;2023-04-03T15:41:38;3.00;;;2.70;;
55409;SDS011;41279;43.546;16.426;2023-04-03T15:44:03;3.30;;;3.00;;
55409;SDS011;41279;43.546;16.426;2023-04-03T15:46:29;3.10;;;2.80;;
55409;SDS011;41279;43.546;16.426;2023-04-03T15:48:55;5.43;;;3.10;;
55409;SDS011;41279;43.546;16.426;2023-04-03T15:51:20;3.20;;;2.90;;
55409;SDS011;41279;43.546;16.426;2023-04-03T15:53:45;3.22;;;2.92;;
55409;SDS011;41279;43.546;16.426;2023-04-03T15:56:11;3.13;;;2.83;;
55409;SDS011;41279;43.546;16.426;2023-04-03T15:58:37;4.18;;;3.00;;
55409;SDS011;41279;43.546;16.426;2023-04-03T16:01:02;3.30;;;3.00;;
55409;SDS011;41279;43.546;16.426;2023-04-03T16:03:28;3.75;;;3.20;;
55409;SDS011;41279;43.546;16.426;2023-04-03T16:05:54;5.60;;;3.00;;
55409;SDS011;41279;43.546;16.426;2023-04-03T16:08:20;3.50;;;3.20;;
55409;SDS011;41279;43.546;16.426;2023-04-03T16:10:45;5.15;;;3.00;;
55409;SDS011;41279;43.546;16.426;2023-04-03T16:13:12;3.20;;;2.80;;
55409;SDS011;41279;43.546;16.426;2023-04-03T16:15:37;4.00;;;2.80;;
55409;SDS011;41279;43.546;16.426;2023-04-03T16:18:03;3.10;;;2.80;;
55409;SDS011;41279;43.546;16.426;2023-04-03T16:20:29;3.33;;;2.90;;
55409;SDS011;41279;43.546;16.426;2023-04-03T16:22:56;3.20;;;2.90;;
55409;SDS011;41279;43.546;16.426;2023-04-03T16:25:24;3.20;;;2.90;;
55409;SDS011;41279;43.546;16.426;2023-04-03T16:27:50;3.25;;;2.83;;
55409;SDS011;41279;43.546;16.426;2023-04-03T16:30:15;4.05;;;3.20;;
55409;SDS011;41279;43.546;16.426;2023-04-03T16:32:47;3.70;;;3.10;;
55409;SDS011;41279;43.546;16.426;2023-04-03T16:35:13;3.10;;;2.80;;
55409;SDS011;41279;43.546;16.426;2023-04-03T16:37:45;3.67;;;3.00;;
55409;SDS011;41279;43.546;16.426;2023-04-03T16:40:10;3.33;;;2.90;;
55409;SDS011;41279;43.546;16.426;2023-04-03T16:42:37;3.65;;;3.33;;
55409;SDS011;41279;43.546;16.426;2023-04-03T16:45:03;3.30;;;3.00;;